METAR Data
IDs: Format: Raw Decoded Include TAF

Data at: 0543 UTC 24 Sep 2018

KMIS 240535Z AUTO VRB04G12KT 10SM CLR 29/23 A2996 RMK A01
KMIS 240515Z AUTO VRB06KT 10SM CLR 29/24 A2996 RMK A01
KMIS 240455Z AUTO VRB04G11KT 10SM CLR 29/23 A2997 RMK A01
KMIS 240435Z AUTO VRB06G12KT 10SM CLR 29/23 A2997 RMK A01
KMIS 240415Z AUTO 15007G14KT 120V180 10SM SCT032 SCT038 29/24 A2996 RMK A01
KMIS 240355Z AUTO VRB06KT 10SM SCT031 30/22 A2997 RMK A01
KMIS 240335Z AUTO 14006KT 10SM CLR 29/23 A2997 RMK A01
KMIS 240315Z AUTO 14007G13KT 120V180 10SM CLR 29/23 A2996 RMK A01
KMIS 240255Z AUTO 15007G14KT 120V190 10SM FEW027 29/23 A2996 RMK A01
KMIS 240235Z AUTO 13008G14KT 10SM FEW027 30/24 A2995 RMK A01
KMIS 240215Z AUTO 14006KT 10SM CLR 30/22 A2995 RMK A01
KMIS 240155Z AUTO VRB03KT 10SM CLR 30/22 A2995 RMK A01
KMIS 240135Z AUTO VRB04G10KT 10SM FEW026 29/22 A2995 RMK A01
KMIS 240115Z AUTO VRB04KT 10SM CLR 29/23 A2994 RMK A01
KMIS 240055Z AUTO 18005KT 10SM CLR 29/23 A2994 RMK A01
KMIS 240035Z AUTO 19007KT 10SM CLR 29/23 A2994 RMK A01
KMIS 240015Z AUTO 00000KT 10SM CLR 29/22 A2993 RMK A01
KMIS 232355Z AUTO 18004KT 10SM CLR 29/22 A2993 RMK A01
KMIS 232335Z AUTO 18006KT 10SM CLR 29/22 A2993 RMK A01
KMIS 232315Z AUTO VRB04KT 10SM FEW027 29/22 A2993 RMK A01
KMIS 232255Z AUTO 19006KT 10SM CLR 29/23 A2993 RMK A01
KMIS 232235Z AUTO 18007KT 10SM CLR 29/23 A2993 RMK A01
KMIS 232215Z AUTO 18006KT 10SM CLR 30/23 A2992 RMK A01
KMIS 232155Z AUTO 20007KT 10SM FEW028 35/22 A2992 RMK A01
KMIS 232135Z AUTO 19005KT 10SM FEW029 34/22 A2993 RMK A01
KMIS 232115Z AUTO 19006KT 10SM CLR 35/22 A2993 RMK A01
KMIS 232055Z AUTO 19007KT 10SM FEW031 FEW037 35/23 A2993 RMK A01
KMIS 232035Z AUTO 20007KT 10SM FEW031 35/22 A2993 RMK A01
KMIS 232015Z AUTO 18004KT 10SM CLR 34/22 A2993 RMK A01
KMIS 231955Z AUTO 19007KT 10SM CLR 34/22 A2993 RMK A01
KMIS 231935Z AUTO 20005KT 10SM FEW030 34/23 A2994 RMK A01
KMIS 231915Z AUTO 19006KT 10SM BKN031 35/22 A2995 RMK A01
KMIS 231855Z AUTO 18005KT 10SM CLR 35/22 A2996 RMK A01
KMIS 231835Z AUTO 19005KT 10SM FEW030 35/22 A2997 RMK A01
KMIS 231815Z AUTO 19006KT 10SM BKN029 BKN034 BKN048 35/23 A2998 RMK A01
KMIS 231755Z AUTO 20005KT 7SM BKN028 BKN036 BKN043 34/23 A2998 RMK A01
KMIS 231735Z AUTO 19005KT 10SM FEW029 SCT034 BKN055 35/23 A2999 RMK A01
KMIS 231715Z AUTO 20006KT 10SM SCT030 SCT041 35/23 A2999 RMK A01
KMIS 231655Z AUTO 19006KT 10SM FEW032 FEW038 35/22 A3000 RMK A01
KMIS 231635Z AUTO 19004KT 10SM FEW032 SCT038 34/22 A3000 RMK A01
KMIS 231615Z AUTO 19005KT 10SM CLR 35/22 A3000 RMK A01
KMIS 231555Z AUTO 18004KT 10SM FEW120 34/23 A3000 RMK A01
KMIS 231535Z AUTO 18004KT 10SM CLR 34/22 A3000 RMK A01
KMIS 231515Z AUTO 18005KT 10SM CLR 34/22 A3000 RMK A01
KMIS 231455Z AUTO 17005KT 10SM FEW031 SCT043 BKN090 34/22 A3000 RMK A01
KMIS 231435Z AUTO VRB05KT 10SM FEW030 FEW043 SCT055 33/22 A3000 RMK A01
KMIS 231410Z AUTO 18005KT 10SM FEW032 33/22 A2999 RMK A01
KMIS 231355Z AUTO VRB04KT 9SM CLR 32/22 A2999 RMK A01
KMIS 231335Z AUTO VRB04KT 10SM FEW029 32/22 A2998 RMK A01
KMIS 231315Z AUTO VRB05KT 10SM CLR 32/22 A2998 RMK A01
KMIS 231255Z AUTO VRB05KT 10SM CLR 31/22 A2998 RMK A01
KMIS 231235Z AUTO VRB04KT 10SM FEW060 FEW085 29/22 A2997 RMK A01
KMIS 231215Z AUTO 13005G10KT 10SM FEW060 BKN080 28/23 A2997 RMK A01
KMIS 231155Z AUTO 12006KT 10SM BKN080 BKN090 28/23 A2996 RMK A01
KMIS 231135Z AUTO 12008KT 10SM CLR 28/23 A2995 RMK A01
KMIS 231115Z AUTO 00000KT 10SM CLR 28/23 A2996 RMK A01
KMIS 231055Z AUTO 19004KT 10SM CLR 28/22 A2995 RMK A01
KMIS 231035Z AUTO 23004KT 10SM FEW004 FEW013 SCT034 30/21 A2995 RMK A01
KMIS 231015Z AUTO 22006KT 1 1/4SM HZ BKN005 OVC030 26/22 A2995 RMK A01
KMIS 230955Z AUTO 17011KT 10SM SCT029 BKN037 BKN049 28/23 A2993 RMK A01
KMIS 230935Z AUTO 19007KT 10SM FEW029 FEW036 FEW042 29/22 A2994 RMK A01
KMIS 230915Z AUTO 19007KT 10SM SCT029 SCT036 SCT042 29/23 A2994 RMK A01
KMIS 230855Z AUTO 18008KT 10SM SCT028 SCT033 29/22 A2994 RMK A01
KMIS 230835Z AUTO 18007KT 10SM FEW030 29/22 A2994 RMK A01
KMIS 230815Z AUTO 18009KT 10SM FEW029 FEW039 29/22 A2995 RMK A01
KMIS 230755Z AUTO 18010KT 10SM FEW028 SCT034 SCT039 29/22 A2995 RMK A01
KMIS 230735Z AUTO VRB05KT 10SM CLR 29/22 A2995 RMK A01
KMIS 230715Z AUTO VRB05G11KT 10SM CLR 29/22 A2995 RMK A01
KMIS 230655Z AUTO VRB04G11KT 10SM CLR 29/22 A2996 RMK A01
KMIS 230635Z AUTO VRB05G12KT 10SM SCT029 SCT035 29/22 A2996 RMK A01
KMIS 230615Z AUTO VRB05G11KT 10SM SCT029 SCT036 SCT050 30/23 A2996 RMK A01
KMIS 230555Z AUTO VRB06KT 090V200 10SM FEW027 FEW035 SCT040 29/23 A2997 RMK A01
KMIS 230535Z AUTO 14006G12KT 10SM FEW040 30/23 A2997 RMK A01
KMIS 230515Z AUTO 14007G13KT 10SM FEW027 FEW035 30/23 A2998 RMK A01
KMIS 230455Z AUTO VRB04KT 10SM FEW028 FEW035 29/23 A2998 RMK A01
KMIS 230435Z AUTO 14007KT 120V180 10SM CLR 30/23 A2998 RMK A01
KMIS 230415Z AUTO 00000G12KT 10SM CLR 30/23 A2999 RMK A01
KMIS 230355Z AUTO VRB04G11KT 10SM FEW030 FEW038 30/23 A2999 RMK A01
KMIS 230335Z AUTO VRB05G12KT 10SM FEW030 FEW041 30/23 A3000 RMK A01
KMIS 230315Z AUTO VRB06KT 10SM FEW031 30/22 A3000 RMK A01
KMIS 230255Z AUTO VRB04KT 10SM CLR 30/22 A3000 RMK A01
KMIS 230235Z AUTO VRB06KT 10SM CLR 30/22 A3001 RMK A01
KMIS 230215Z AUTO VRB04KT 10SM CLR 29/22 A3001 RMK A01
KMIS 230155Z AUTO VRB03KT 10SM CLR 30/22 A3001 RMK A01
KMIS 230135Z AUTO 00000G10KT 10SM CLR 30/22 A3000 RMK A01
KMIS 230115Z AUTO 18006KT 10SM FEW033 29/22 A2999 RMK A01
KMIS 230055Z AUTO 18006KT 10SM SCT033 SCT045 29/22 A2998 RMK A01
KMIS 230035Z AUTO 18006KT 10SM SCT031 BKN038 BKN045 29/22 A2998 RMK A01
KMIS 230015Z AUTO 18007KT 10SM SCT031 30/22 A2998 RMK A01
KMIS 222355Z AUTO VRB04KT 10SM SCT031 SCT038 29/23 A2998 RMK A01
KMIS 222335Z AUTO 19005KT 10SM FEW030 FEW038 30/23 A2997 RMK A01
KMIS 222315Z AUTO 18006KT 10SM FEW031 30/22 A2997 RMK A01
KMIS 222255Z AUTO 18006KT 10SM SCT031 SCT038 30/22 A2997 RMK A01
KMIS 222235Z AUTO 18008KT 10SM FEW029 SCT037 30/23 A2996 RMK A01
KMIS 222215Z AUTO 18009KT 10SM FEW029 FEW035 31/23 A2996 RMK A01
KMIS 222155Z AUTO VRB05KT 10SM FEW033 31/23 A2996 RMK A01
KMIS 222135Z AUTO VRB05G11KT 10SM CLR 30/22 A2996 RMK A01
KMIS 222115Z AUTO 18006KT 10SM CLR 31/23 A2996 RMK A01
KMIS 222055Z AUTO 18006KT 10SM FEW028 30/22 A2996 RMK A01
KMIS 222035Z AUTO VRB04G10KT 10SM SCT028 SCT034 30/23 A2997 RMK A01
KMIS 222015Z AUTO 18006KT 10SM FEW028 FEW034 31/23 A2997 RMK A01
KMIS 221955Z AUTO 18007KT 10SM SCT027 30/24 A2998 RMK A01
KMIS 221935Z AUTO 18008KT 10SM SCT026 31/23 A2998 RMK A01
KMIS 221915Z AUTO 18006G11KT 10SM FEW026 30/23 A2998 RMK A01
KMIS 221855Z AUTO 18006KT 10SM FEW027 31/23 A2999 RMK A01
KMIS 221835Z AUTO 18008KT 10SM FEW029 31/23 A3000 RMK A01
KMIS 221815Z AUTO 18008KT 10SM FEW028 31/23 A3001 RMK A01
KMIS 221755Z AUTO VRB05G11KT 10SM FEW029 30/23 A3002 RMK A01